createdAt,value
2019-02-15T00:00:42.964Z,5.10
2019-02-15T00:01:49.863Z,5.00
2019-02-15T00:02:54.988Z,5.00
2019-02-15T00:03:59.812Z,4.90
2019-02-15T00:05:04.853Z,5.00
2019-02-15T00:06:09.792Z,4.90
2019-02-15T00:07:14.552Z,4.90
2019-02-15T00:08:19.623Z,4.90
2019-02-15T00:09:24.513Z,4.90
2019-02-15T00:10:29.285Z,4.90
2019-02-15T00:11:34.176Z,4.80
2019-02-15T00:12:39.100Z,4.80
2019-02-15T00:13:43.898Z,4.80
2019-02-15T00:14:49.727Z,4.80
2019-02-15T00:15:54.621Z,4.80
2019-02-15T00:17:00.382Z,4.80
2019-02-15T00:18:23.521Z,4.80
2019-02-15T00:19:33.777Z,4.80
2019-02-15T00:20:47.015Z,4.80
2019-02-15T00:21:53.506Z,4.80
2019-02-15T00:22:58.282Z,4.80
2019-02-15T00:24:03.119Z,4.80
2019-02-15T00:25:08.132Z,4.80
2019-02-15T00:26:12.995Z,4.70
2019-02-15T00:27:17.952Z,4.70
2019-02-15T00:28:22.793Z,4.70
2019-02-15T00:29:27.621Z,4.70
2019-02-15T00:30:32.670Z,4.70
2019-02-15T00:31:37.560Z,4.70
2019-02-15T00:32:42.313Z,4.70
2019-02-15T00:33:47.198Z,4.70
2019-02-15T00:34:52.027Z,4.70
2019-02-15T00:35:56.836Z,4.70
2019-02-15T00:37:02.020Z,4.60
2019-02-15T00:38:06.899Z,4.60
2019-02-15T00:39:12.916Z,4.60
2019-02-15T00:40:17.843Z,4.60
2019-02-15T00:41:22.748Z,4.60
2019-02-15T00:42:28.240Z,4.60
2019-02-15T00:43:33.117Z,4.60
2019-02-15T00:44:37.959Z,4.60
2019-02-15T00:46:16.964Z,4.60
2019-02-15T00:47:33.278Z,4.60
2019-02-15T00:48:38.160Z,4.50
2019-02-15T00:49:48.008Z,4.60
2019-02-15T00:51:08.567Z,4.60
2019-02-15T00:52:38.349Z,4.60
2019-02-15T00:53:59.034Z,4.50
2019-02-15T00:55:24.614Z,4.50
2019-02-15T00:56:37.456Z,4.50
2019-02-15T00:57:55.937Z,4.60
2019-02-15T00:59:18.395Z,4.60
2019-02-15T01:00:42.190Z,4.60
2019-02-15T01:02:04.121Z,4.50
2019-02-15T01:03:36.840Z,4.50
2019-02-15T01:05:06.568Z,4.50
2019-02-15T01:06:32.983Z,4.40
2019-02-15T01:07:59.272Z,4.40
2019-02-15T01:09:29.081Z,4.40
2019-02-15T01:11:04.453Z,4.40
2019-02-15T01:12:12.908Z,4.40
2019-02-15T01:13:20.765Z,4.40
2019-02-15T01:14:25.601Z,4.40
2019-02-15T01:15:30.463Z,4.40
2019-02-15T01:16:35.212Z,4.40
2019-02-15T01:17:40.100Z,4.40
2019-02-15T01:18:45.026Z,4.40
2019-02-15T01:19:49.832Z,4.40
2019-02-15T01:20:54.676Z,4.40
2019-02-15T01:21:59.727Z,4.40
2019-02-15T01:23:04.469Z,4.30
2019-02-15T01:24:09.348Z,4.30
2019-02-15T01:25:14.396Z,4.30
2019-02-15T01:26:41.897Z,4.30
2019-02-15T01:28:03.128Z,4.20
2019-02-15T01:29:28.198Z,4.20
2019-02-15T01:30:51.942Z,4.20
2019-02-15T01:32:21.692Z,4.10
2019-02-15T01:33:37.370Z,4.10
2019-02-15T01:35:16.675Z,4.10
2019-02-15T01:36:32.904Z,4.00
2019-02-15T01:38:15.028Z,4.10
2019-02-15T01:39:44.696Z,4.00
2019-02-15T01:41:08.464Z,4.00
2019-02-15T01:42:41.151Z,4.00
2019-02-15T01:43:52.932Z,4.00
2019-02-15T01:45:19.533Z,4.00
2019-02-15T01:46:39.364Z,4.00
2019-02-15T01:47:46.977Z,3.90
2019-02-15T01:48:51.776Z,3.90
2019-02-15T01:49:56.725Z,3.90
2019-02-15T01:51:01.543Z,3.80
2019-02-15T01:52:06.421Z,3.80
2019-02-15T01:53:11.310Z,3.80
2019-02-15T01:54:16.099Z,3.80
2019-02-15T01:55:20.967Z,3.70
2019-02-15T01:56:25.949Z,3.70
2019-02-15T01:57:31.034Z,3.70
2019-02-15T01:58:35.896Z,3.70
2019-02-15T01:59:40.756Z,3.70
2019-02-15T02:00:45.757Z,3.70
2019-02-15T02:01:50.688Z,3.70
2019-02-15T02:02:55.583Z,3.70
2019-02-15T02:04:00.364Z,3.70
2019-02-15T02:05:05.480Z,3.70
2019-02-15T02:06:10.464Z,3.70
2019-02-15T02:07:15.216Z,3.70
2019-02-15T02:08:23.114Z,3.60
2019-02-15T02:09:28.220Z,3.60
2019-02-15T02:10:33.190Z,3.60
2019-02-15T02:11:38.096Z,3.60
2019-02-15T02:12:42.892Z,3.60
2019-02-15T02:13:49.957Z,3.60
2019-02-15T02:14:54.396Z,3.60
2019-02-15T02:15:59.156Z,3.50
2019-02-15T02:17:04.051Z,3.60
2019-02-15T02:18:08.945Z,3.50
2019-02-15T02:19:13.720Z,3.50
2019-02-15T02:20:18.581Z,3.60
2019-02-15T02:21:23.492Z,3.60
2019-02-15T02:22:28.276Z,3.60
2019-02-15T02:23:33.168Z,3.60
2019-02-15T02:24:38.152Z,3.60
2019-02-15T02:25:42.896Z,3.60
2019-02-15T02:26:47.841Z,3.60
2019-02-15T02:27:52.714Z,3.60
2019-02-15T02:28:57.448Z,3.50
2019-02-15T02:30:02.342Z,3.50
2019-02-15T02:31:07.317Z,3.50
2019-02-15T02:32:12.092Z,3.50
2019-02-15T02:33:16.970Z,3.50
2019-02-15T02:34:21.794Z,3.50
2019-02-15T02:35:26.583Z,3.50
2019-02-15T02:36:51.317Z,3.40
2019-02-15T02:37:56.069Z,3.50
2019-02-15T02:39:00.940Z,3.50
2019-02-15T02:40:06.544Z,3.40
2019-02-15T02:41:11.319Z,3.40
2019-02-15T02:42:16.309Z,3.50
2019-02-15T02:43:21.164Z,3.40
2019-02-15T02:44:25.895Z,3.40
2019-02-15T02:45:30.767Z,3.40
2019-02-15T02:46:35.701Z,3.40
2019-02-15T02:47:40.504Z,3.40
2019-02-15T02:48:45.385Z,3.40
2019-02-15T02:49:50.288Z,3.40
2019-02-15T02:50:55.028Z,3.40
2019-02-15T02:51:59.881Z,3.40
2019-02-15T02:53:05.808Z,3.40
2019-02-15T02:54:10.708Z,3.30
2019-02-15T02:55:15.449Z,3.30
2019-02-15T02:56:20.380Z,3.40
2019-02-15T02:57:25.221Z,3.30
2019-02-15T02:58:30.269Z,3.30
2019-02-15T02:59:35.248Z,3.40
2019-02-15T03:00:40.044Z,3.40
2019-02-15T03:01:44.921Z,3.40
2019-02-15T03:02:49.776Z,3.40
2019-02-15T03:03:54.543Z,3.40
2019-02-15T03:04:59.433Z,3.50
2019-02-15T03:06:04.328Z,3.40
2019-02-15T03:07:09.053Z,3.40
2019-02-15T03:08:13.940Z,3.40
2019-02-15T03:09:18.708Z,3.40
2019-02-15T03:10:23.481Z,3.40
2019-02-15T03:11:28.487Z,3.40
2019-02-15T03:12:33.480Z,3.30
2019-02-15T03:13:38.360Z,3.30
2019-02-15T03:14:43.354Z,3.40
2019-02-15T03:15:48.186Z,3.30
2019-02-15T03:16:55.844Z,3.40
2019-02-15T03:18:00.748Z,3.30
2019-02-15T03:19:05.507Z,3.40
2019-02-15T03:20:10.592Z,3.40
2019-02-15T03:21:15.481Z,3.40
2019-02-15T03:22:20.261Z,3.40
2019-02-15T03:23:25.150Z,3.40
2019-02-15T03:24:30.042Z,3.40
2019-02-15T03:25:34.818Z,3.40
2019-02-15T03:26:39.761Z,3.40
2019-02-15T03:27:44.777Z,3.40
2019-02-15T03:28:49.556Z,3.40
2019-02-15T03:29:54.430Z,3.40
2019-02-15T03:30:59.400Z,3.40
2019-02-15T03:32:04.185Z,3.40
2019-02-15T03:33:09.085Z,3.40
2019-02-15T03:34:13.814Z,3.40
2019-02-15T03:35:18.573Z,3.40
2019-02-15T03:36:41.284Z,3.40
2019-02-15T03:38:03.188Z,3.50
2019-02-15T03:39:20.056Z,3.40
2019-02-15T03:40:43.120Z,3.40
2019-02-15T03:41:47.865Z,3.40
2019-02-15T03:42:52.824Z,3.40
2019-02-15T03:43:57.827Z,3.40
2019-02-15T03:45:02.582Z,3.40
2019-02-15T03:46:07.473Z,3.40
2019-02-15T03:47:13.870Z,3.50
2019-02-15T03:48:18.658Z,3.40
2019-02-15T03:49:23.531Z,3.40
2019-02-15T03:50:28.449Z,3.40
2019-02-15T03:51:33.192Z,3.40
2019-02-15T03:52:38.128Z,3.40
2019-02-15T03:53:42.873Z,3.40
2019-02-15T03:54:47.605Z,3.40
2019-02-15T03:55:52.670Z,3.40
2019-02-15T03:56:57.655Z,3.40
2019-02-15T03:58:02.449Z,3.40
2019-02-15T03:59:07.190Z,3.40
2019-02-15T04:00:13.269Z,3.40
2019-02-15T04:01:18.222Z,3.50
2019-02-15T04:02:23.094Z,3.50
2019-02-15T04:03:27.878Z,3.40
2019-02-15T04:04:32.774Z,3.40
2019-02-15T04:05:37.579Z,3.40
2019-02-15T04:06:42.375Z,3.40
2019-02-15T04:07:47.444Z,3.40
2019-02-15T04:08:52.375Z,3.40
2019-02-15T04:09:57.104Z,3.40
2019-02-15T04:11:02.021Z,3.40
2019-02-15T04:12:07.104Z,3.50
2019-02-15T04:13:12.044Z,3.50
2019-02-15T04:14:17.081Z,3.40
2019-02-15T04:15:22.112Z,3.40
2019-02-15T04:16:26.873Z,3.40
2019-02-15T04:17:31.741Z,3.40
2019-02-15T04:18:36.690Z,3.40
2019-02-15T04:19:41.458Z,3.50
2019-02-15T04:20:46.396Z,3.50
2019-02-15T04:21:51.304Z,3.50
2019-02-15T04:22:56.049Z,3.50
2019-02-15T04:24:01.026Z,3.50
2019-02-15T04:25:06.018Z,3.50
2019-02-15T04:26:10.797Z,3.50
2019-02-15T04:27:16.256Z,3.50
2019-02-15T04:28:21.113Z,3.50
2019-02-15T04:29:25.899Z,3.50
2019-02-15T04:30:30.777Z,3.40
2019-02-15T04:31:35.681Z,3.40
2019-02-15T04:32:40.477Z,3.50
2019-02-15T04:33:45.343Z,3.50
2019-02-15T04:34:50.365Z,3.50
2019-02-15T04:35:55.087Z,3.50
2019-02-15T04:36:59.970Z,3.50
2019-02-15T04:38:04.959Z,3.40
2019-02-15T04:39:09.761Z,3.50
2019-02-15T04:40:14.785Z,3.40
2019-02-15T04:41:19.720Z,3.50
2019-02-15T04:42:24.517Z,3.50
2019-02-15T04:43:29.398Z,3.40
2019-02-15T04:44:42.576Z,3.40
2019-02-15T04:45:40.879Z,3.40
2019-02-15T04:46:45.718Z,3.50
2019-02-15T04:47:50.544Z,3.40
2019-02-15T04:48:55.296Z,3.40
2019-02-15T04:50:00.353Z,3.40
2019-02-15T04:51:05.181Z,3.50
2019-02-15T04:52:10.046Z,3.50
2019-02-15T04:53:14.925Z,3.50
2019-02-15T04:54:19.676Z,3.50
2019-02-15T04:55:24.484Z,3.50
2019-02-15T04:56:29.422Z,3.50
2019-02-15T04:57:34.312Z,3.50
2019-02-15T04:58:39.084Z,3.60
2019-02-15T04:59:43.924Z,3.60
2019-02-15T05:00:49.043Z,3.60
2019-02-15T05:01:53.827Z,3.60
2019-02-15T05:02:58.789Z,3.60
2019-02-15T05:04:03.642Z,3.60
2019-02-15T05:05:08.440Z,3.60
2019-02-15T05:06:13.352Z,3.60
2019-02-15T05:07:18.267Z,3.60
2019-02-15T05:08:22.999Z,3.60
2019-02-15T05:09:27.960Z,3.50
2019-02-15T05:10:33.076Z,3.60
2019-02-15T05:11:37.906Z,3.50
2019-02-15T05:12:42.957Z,3.60
2019-02-15T05:13:47.929Z,3.60
2019-02-15T05:14:53.520Z,3.50
2019-02-15T05:15:58.516Z,3.50
2019-02-15T05:17:03.466Z,3.60
2019-02-15T05:18:08.256Z,3.50
2019-02-15T05:19:13.317Z,3.50
2019-02-15T05:20:18.259Z,3.50
2019-02-15T05:21:23.056Z,3.60
2019-02-15T05:22:28.026Z,3.60
2019-02-15T05:23:32.888Z,3.50
2019-02-15T05:24:40.595Z,3.60
2019-02-15T05:25:45.473Z,3.60
2019-02-15T05:26:50.270Z,3.60
2019-02-15T05:27:55.241Z,3.60
2019-02-15T05:29:00.330Z,3.60
2019-02-15T05:30:05.268Z,3.60
2019-02-15T05:31:10.212Z,3.60
2019-02-15T05:32:15.203Z,3.70
2019-02-15T05:33:19.997Z,3.70
2019-02-15T05:34:24.824Z,3.70
2019-02-15T05:35:29.694Z,3.70
2019-02-15T05:36:34.480Z,3.70
2019-02-15T05:37:39.500Z,3.70
2019-02-15T05:38:44.562Z,3.70
2019-02-15T05:39:49.357Z,3.70
2019-02-15T05:40:54.230Z,3.70
2019-02-15T05:41:59.085Z,3.70
2019-02-15T05:43:03.892Z,3.70
2019-02-15T05:44:08.724Z,3.70
2019-02-15T05:45:13.844Z,3.70
2019-02-15T05:46:18.748Z,3.70
2019-02-15T05:47:23.756Z,3.70
2019-02-15T05:48:28.808Z,3.80
2019-02-15T05:49:33.733Z,3.80
2019-02-15T05:50:38.757Z,3.80
2019-02-15T05:51:43.689Z,3.80
2019-02-15T05:52:48.506Z,3.80
2019-02-15T05:53:53.525Z,3.70
2019-02-15T05:54:59.541Z,3.80
2019-02-15T05:56:04.811Z,3.80
2019-02-15T05:57:10.025Z,3.80
2019-02-15T05:58:14.997Z,3.80
2019-02-15T05:59:19.951Z,3.80
2019-02-15T06:00:24.849Z,3.80
2019-02-15T06:01:29.897Z,3.80
2019-02-15T06:02:34.948Z,3.80
2019-02-15T06:03:39.827Z,3.80
2019-02-15T06:04:44.582Z,3.90
2019-02-15T06:05:49.545Z,3.90
2019-02-15T06:06:54.630Z,3.80
2019-02-15T06:07:59.619Z,3.90
2019-02-15T06:09:05.833Z,3.90
2019-02-15T06:10:11.118Z,3.80
2019-02-15T06:11:16.139Z,3.80
2019-02-15T06:12:21.124Z,3.90
2019-02-15T06:13:26.128Z,3.90
2019-02-15T06:14:31.052Z,3.80
2019-02-15T06:15:35.920Z,3.80
2019-02-15T06:16:40.845Z,3.80
2019-02-15T06:17:45.613Z,3.80
2019-02-15T06:18:50.488Z,3.80
2019-02-15T06:19:55.381Z,3.80
2019-02-15T06:21:00.141Z,3.90
2019-02-15T06:22:05.049Z,3.90
2019-02-15T06:23:09.983Z,3.90
2019-02-15T06:24:14.748Z,3.90
2019-02-15T06:25:19.853Z,3.90
2019-02-15T06:26:24.748Z,3.90
2019-02-15T06:27:29.645Z,3.90
2019-02-15T06:28:34.963Z,3.90
2019-02-15T06:29:40.021Z,3.90
2019-02-15T06:30:44.866Z,3.90
2019-02-15T06:31:49.752Z,3.90
2019-02-15T06:32:54.832Z,4.00
2019-02-15T06:33:59.589Z,4.00
2019-02-15T06:35:04.588Z,4.00
2019-02-15T06:36:09.456Z,4.00
2019-02-15T06:37:14.241Z,4.00
2019-02-15T06:38:19.204Z,4.00
2019-02-15T06:39:24.211Z,4.00
2019-02-15T06:40:29.006Z,4.00
2019-02-15T06:41:33.895Z,4.00
2019-02-15T06:42:38.791Z,4.00
2019-02-15T06:43:43.748Z,4.10
2019-02-15T06:44:48.732Z,4.00
2019-02-15T06:45:53.708Z,4.00
2019-02-15T06:46:58.633Z,4.10
2019-02-15T06:48:03.639Z,4.00
2019-02-15T06:49:08.637Z,4.00
2019-02-15T06:50:16.394Z,4.10
2019-02-15T06:51:21.437Z,4.10
2019-02-15T06:52:26.243Z,4.10
2019-02-15T06:53:31.370Z,4.10
2019-02-15T06:54:36.278Z,4.10
2019-02-15T06:55:41.368Z,4.20
2019-02-15T06:56:46.468Z,4.10
2019-02-15T06:57:51.612Z,4.10
2019-02-15T06:59:18.551Z,4.10
2019-02-15T07:01:00.488Z,4.10
2019-02-15T07:02:30.302Z,4.10
2019-02-15T07:03:43.273Z,4.10
2019-02-15T07:05:19.324Z,4.10
2019-02-15T07:06:24.086Z,4.10
2019-02-15T07:07:29.078Z,4.10
2019-02-15T07:08:34.066Z,4.10
2019-02-15T07:09:39.026Z,4.10
2019-02-15T07:10:43.909Z,4.20
2019-02-15T07:11:48.959Z,4.20
2019-02-15T07:12:53.753Z,4.20
2019-02-15T07:13:58.876Z,4.20
2019-02-15T07:15:03.737Z,4.20
2019-02-15T07:16:08.571Z,4.20
2019-02-15T07:17:13.568Z,4.20
2019-02-15T07:18:18.560Z,4.20
2019-02-15T07:19:23.444Z,4.20
2019-02-15T07:20:28.760Z,4.20
2019-02-15T07:21:34.004Z,4.20
2019-02-15T07:22:38.853Z,4.20
2019-02-15T07:23:43.985Z,4.20
2019-02-15T07:24:48.800Z,4.20
2019-02-15T07:25:53.746Z,4.20
2019-02-15T07:26:58.903Z,4.20
2019-02-15T07:28:03.901Z,4.30
2019-02-15T07:29:08.968Z,4.30
2019-02-15T07:30:15.524Z,4.30
2019-02-15T07:31:20.579Z,4.20
2019-02-15T07:32:25.616Z,4.30
2019-02-15T07:33:30.684Z,4.30
2019-02-15T07:34:35.527Z,4.30
2019-02-15T07:35:40.542Z,4.30
2019-02-15T07:36:47.646Z,4.30
2019-02-15T07:37:53.673Z,4.30
2019-02-15T07:38:58.853Z,4.30
2019-02-15T07:40:03.809Z,4.30
2019-02-15T07:41:08.898Z,4.30
2019-02-15T07:42:13.809Z,4.30
2019-02-15T07:43:18.748Z,4.30
2019-02-15T07:44:23.964Z,4.30
2019-02-15T07:45:28.993Z,4.40
2019-02-15T07:46:33.932Z,4.40
2019-02-15T07:47:39.118Z,4.40
2019-02-15T07:48:43.988Z,4.40
2019-02-15T07:53:20.488Z,4.50
2019-02-15T07:54:26.163Z,4.40
2019-02-15T07:55:31.587Z,4.40
2019-02-15T07:56:36.839Z,4.40
2019-02-15T07:57:41.812Z,4.40
2019-02-15T07:58:46.961Z,4.50
2019-02-15T07:59:52.029Z,4.50
2019-02-15T08:00:56.949Z,4.50
2019-02-15T08:02:02.335Z,4.50
2019-02-15T08:03:07.699Z,4.40
2019-02-15T08:04:12.629Z,4.40
2019-02-15T08:05:17.413Z,4.50
2019-02-15T08:06:22.187Z,4.50
2019-02-15T08:07:27.737Z,4.40
2019-02-15T08:08:33.386Z,4.50
2019-02-15T08:09:38.085Z,4.50
2019-02-15T08:10:42.809Z,4.50
2019-02-15T08:11:48.176Z,4.50
2019-02-15T08:12:53.496Z,4.50
2019-02-15T08:13:58.936Z,4.60
2019-02-15T08:15:04.736Z,4.50
2019-02-15T08:16:09.916Z,4.60
2019-02-15T08:17:14.615Z,4.60
2019-02-15T08:18:19.381Z,4.60
2019-02-15T08:19:24.364Z,4.60
2019-02-15T08:20:29.141Z,4.60
2019-02-15T08:21:33.889Z,4.60
2019-02-15T08:22:38.672Z,4.70
2019-02-15T08:23:43.425Z,4.70
2019-02-15T08:24:48.258Z,4.60
2019-02-15T08:25:53.083Z,4.60
2019-02-15T08:26:57.882Z,4.60
2019-02-15T08:28:02.682Z,4.60
2019-02-15T08:29:07.609Z,4.60
2019-02-15T08:30:12.651Z,4.60
2019-02-15T08:31:17.520Z,4.60
2019-02-15T08:32:22.371Z,4.60
2019-02-15T08:33:27.161Z,4.60
2019-02-15T08:34:31.939Z,4.60
2019-02-15T08:35:36.729Z,4.60
2019-02-15T08:36:41.528Z,4.60
2019-02-15T08:37:46.284Z,4.60
2019-02-15T08:38:51.223Z,4.60
2019-02-15T08:39:55.972Z,4.70
2019-02-15T08:41:08.804Z,4.70
2019-02-15T08:42:13.665Z,4.60
2019-02-15T08:43:18.416Z,4.60
2019-02-15T08:44:23.173Z,4.70
2019-02-15T08:45:27.983Z,4.70
2019-02-15T08:46:32.780Z,4.60
2019-02-15T08:47:37.524Z,4.60
2019-02-15T08:48:46.207Z,4.60
2019-02-15T08:49:48.852Z,4.70
2019-02-15T08:50:53.652Z,4.60
2019-02-15T08:51:58.448Z,4.70
2019-02-15T08:53:03.358Z,4.70
2019-02-15T08:54:08.215Z,4.80
2019-02-15T08:55:13.497Z,4.70
2019-02-15T08:56:18.328Z,4.70
2019-02-15T08:57:23.114Z,4.70
2019-02-15T08:58:27.983Z,4.70
2019-02-15T08:59:32.807Z,4.70
2019-02-15T09:00:37.624Z,4.80
2019-02-15T09:01:42.615Z,4.70
2019-02-15T09:02:47.397Z,4.60
2019-02-15T09:03:52.173Z,4.60
2019-02-15T09:04:56.987Z,4.70
2019-02-15T09:06:01.840Z,4.60
2019-02-15T09:07:06.645Z,4.60
2019-02-15T09:08:11.478Z,4.60
2019-02-15T09:09:16.255Z,4.70
2019-02-15T09:10:21.073Z,4.70
2019-02-15T09:11:25.887Z,4.70
2019-02-15T09:12:30.694Z,4.70
2019-02-15T09:13:35.426Z,4.80
2019-02-15T09:14:40.385Z,4.70
2019-02-15T09:15:45.230Z,4.70
2019-02-15T09:16:50.036Z,4.70
2019-02-15T09:17:54.857Z,4.70
2019-02-15T09:19:00.614Z,4.70
2019-02-15T09:20:06.097Z,4.80
2019-02-15T09:21:11.009Z,4.70
2019-02-15T09:22:15.793Z,4.80
2019-02-15T09:23:20.618Z,4.80
2019-02-15T09:24:25.451Z,4.80
2019-02-15T09:25:30.308Z,4.80
2019-02-15T09:26:35.151Z,4.70
2019-02-15T09:28:01.566Z,4.80
2019-02-15T09:29:09.297Z,4.70
2019-02-15T09:30:14.978Z,4.70
2019-02-15T09:31:19.751Z,4.80
2019-02-15T09:32:24.716Z,4.80
2019-02-15T09:33:30.031Z,4.80
2019-02-15T09:34:34.833Z,4.80
2019-02-15T09:35:39.856Z,4.80
2019-02-15T09:36:44.832Z,4.80
2019-02-15T09:37:49.752Z,4.80
2019-02-15T09:38:55.046Z,4.80
2019-02-15T09:39:59.871Z,4.90
2019-02-15T09:41:04.913Z,4.80
2019-02-15T09:42:09.707Z,4.80
2019-02-15T09:43:14.557Z,4.80
2019-02-15T09:44:19.344Z,4.80
2019-02-15T09:45:24.072Z,4.80
2019-02-15T09:46:28.965Z,4.70
2019-02-15T09:47:33.739Z,4.70
2019-02-15T09:48:38.793Z,4.70
2019-02-15T09:49:45.191Z,4.70
2019-02-15T09:50:50.317Z,4.70
2019-02-15T09:51:55.627Z,4.70
2019-02-15T09:53:00.576Z,4.70
2019-02-15T09:54:05.456Z,4.70
2019-02-15T09:55:10.415Z,4.70
2019-02-15T09:56:15.567Z,4.70
2019-02-15T09:57:20.281Z,4.70
2019-02-15T09:58:25.582Z,4.70
2019-02-15T09:59:30.446Z,4.70
2019-02-15T10:00:35.309Z,4.70
2019-02-15T10:01:40.086Z,4.80
2019-02-15T10:02:44.887Z,4.80
2019-02-15T10:03:49.807Z,4.80
2019-02-15T10:04:54.608Z,4.80
2019-02-15T10:05:59.517Z,4.80
2019-02-15T10:07:04.276Z,4.80
2019-02-15T10:08:09.111Z,4.80
2019-02-15T10:09:13.956Z,4.80
2019-02-15T10:10:18.778Z,4.90
2019-02-15T10:11:23.927Z,4.90
2019-02-15T10:12:28.667Z,4.90
2019-02-15T10:13:33.468Z,4.90
2019-02-15T10:14:38.188Z,4.90
2019-02-15T10:15:43.021Z,4.90
2019-02-15T10:16:48.051Z,5.00
2019-02-15T10:17:53.004Z,5.00
2019-02-15T10:18:57.818Z,5.10
2019-02-15T10:20:02.623Z,5.10
2019-02-15T10:21:07.501Z,5.00
2019-02-15T10:22:12.362Z,5.00
2019-02-15T10:23:17.258Z,5.00
2019-02-15T10:24:22.060Z,5.00
2019-02-15T10:25:27.004Z,5.00
2019-02-15T10:26:31.781Z,5.00
2019-02-15T10:27:37.916Z,5.10
2019-02-15T10:28:42.690Z,5.00
2019-02-15T10:29:47.461Z,5.00
2019-02-15T10:30:55.119Z,5.00
2019-02-15T10:32:00.297Z,5.00
2019-02-15T10:33:05.156Z,5.10
2019-02-15T10:34:10.100Z,5.10
2019-02-15T10:35:14.891Z,5.20
2019-02-15T10:36:19.978Z,5.10
2019-02-15T10:37:24.907Z,5.10
2019-02-15T10:38:29.746Z,5.00
2019-02-15T10:39:34.558Z,5.10
2019-02-15T10:40:39.445Z,5.10
2019-02-15T10:41:44.270Z,5.10
2019-02-15T10:42:49.012Z,5.20
2019-02-15T10:43:53.792Z,5.20
2019-02-15T10:44:58.549Z,5.20
2019-02-15T10:46:03.321Z,5.20
2019-02-15T10:47:13.934Z,5.20
2019-02-15T10:48:14.504Z,5.20
2019-02-15T10:49:20.715Z,5.10
2019-02-15T10:50:25.533Z,5.00
2019-02-15T10:51:32.172Z,5.10
2019-02-15T10:52:37.990Z,5.10
2019-02-15T10:53:42.732Z,5.10
2019-02-15T10:54:47.542Z,5.10
2019-02-15T10:55:52.266Z,5.20
2019-02-15T10:56:57.073Z,5.20
2019-02-15T10:58:01.883Z,5.20
2019-02-15T10:59:06.747Z,5.30
2019-02-15T11:00:16.930Z,5.20
2019-02-15T11:01:21.688Z,5.20
2019-02-15T11:02:26.495Z,5.30
2019-02-15T11:03:31.299Z,5.30
2019-02-15T11:04:36.113Z,5.30
2019-02-15T11:05:40.885Z,5.30
2019-02-15T11:06:45.719Z,5.30
2019-02-15T11:07:50.514Z,5.30
2019-02-15T11:08:55.318Z,5.40
2019-02-15T11:10:00.158Z,5.40
2019-02-15T11:11:05.001Z,5.40
2019-02-15T11:12:09.894Z,5.40
2019-02-15T11:13:14.629Z,5.40
2019-02-15T11:14:19.339Z,5.40
2019-02-15T11:15:24.092Z,5.40
2019-02-15T11:16:29.075Z,5.30
2019-02-15T11:17:33.828Z,5.30
2019-02-15T11:18:38.760Z,5.30
2019-02-15T11:19:43.505Z,5.30
2019-02-15T11:20:48.427Z,5.30
2019-02-15T11:21:53.269Z,5.30
2019-02-15T11:22:58.024Z,5.30
2019-02-15T11:24:02.858Z,5.40
2019-02-15T11:25:08.923Z,5.30
2019-02-15T11:26:13.672Z,5.30
2019-02-15T11:27:18.460Z,5.30
2019-02-15T11:28:23.197Z,5.40
2019-02-15T11:29:27.970Z,5.40
2019-02-15T11:30:32.728Z,5.40
2019-02-15T11:31:37.480Z,5.30
2019-02-15T11:32:42.472Z,5.30
2019-02-15T11:33:47.225Z,5.30
2019-02-15T11:34:51.981Z,5.30
2019-02-15T11:35:56.748Z,5.30
2019-02-15T11:37:01.921Z,5.30
2019-02-15T11:38:07.022Z,5.30
2019-02-15T11:39:12.147Z,5.30
2019-02-15T11:40:17.115Z,5.30
2019-02-15T11:41:22.040Z,5.20
2019-02-15T11:42:26.896Z,5.10
2019-02-15T11:43:31.694Z,5.20
2019-02-15T11:44:36.461Z,5.20
2019-02-15T11:45:41.262Z,5.20
2019-02-15T11:46:46.008Z,5.20
2019-02-15T11:47:50.789Z,5.30
2019-02-15T11:48:55.561Z,5.20
2019-02-15T11:50:00.375Z,5.20
2019-02-15T11:51:05.191Z,5.20
2019-02-15T11:52:10.114Z,5.30
2019-02-15T11:53:16.332Z,5.20
2019-02-15T11:54:23.665Z,5.20
2019-02-15T11:55:27.717Z,5.20
2019-02-15T11:56:32.482Z,5.10
2019-02-15T11:57:37.399Z,5.20
2019-02-15T11:58:42.148Z,5.10
2019-02-15T12:03:07.712Z,5.20
2019-02-15T12:04:12.835Z,5.20
2019-02-15T12:05:17.990Z,5.20
2019-02-15T12:06:23.019Z,5.20
2019-02-15T12:07:28.010Z,5.30
2019-02-15T12:08:32.957Z,5.30
2019-02-15T12:09:37.915Z,5.30
2019-02-15T12:10:43.047Z,5.30
2019-02-15T12:11:47.988Z,5.30
2019-02-15T12:12:53.101Z,5.30
2019-02-15T12:13:58.124Z,5.30
2019-02-15T12:15:03.099Z,5.20
2019-02-15T12:16:08.650Z,5.20
2019-02-15T12:17:16.359Z,5.30
2019-02-15T12:18:21.149Z,5.30
2019-02-15T12:19:26.564Z,5.30
2019-02-15T12:20:31.719Z,5.20
2019-02-15T12:21:36.966Z,5.20
2019-02-15T12:22:42.042Z,5.20
2019-02-15T12:23:47.040Z,5.20
2019-02-15T12:24:52.008Z,5.20
2019-02-15T12:25:57.164Z,5.10
2019-02-15T12:27:02.103Z,5.10
2019-02-15T12:28:07.108Z,5.20
2019-02-15T12:29:12.239Z,5.20
2019-02-15T12:30:17.437Z,5.20
2019-02-15T12:31:22.396Z,5.20
2019-02-15T12:32:27.563Z,5.20
2019-02-15T12:33:32.716Z,5.20
2019-02-15T12:34:37.677Z,5.20
2019-02-15T12:35:42.885Z,5.20
2019-02-15T12:36:48.186Z,5.10
2019-02-15T12:37:53.241Z,5.10
2019-02-15T12:38:58.536Z,5.10
2019-02-15T12:40:03.839Z,5.00
2019-02-15T12:41:08.966Z,5.10
2019-02-15T12:42:13.925Z,5.10
2019-02-15T12:43:19.089Z,5.10
2019-02-15T12:44:24.092Z,5.00
2019-02-15T12:45:29.235Z,4.90
2019-02-15T12:46:34.084Z,4.90
2019-02-15T12:47:38.999Z,4.90
2019-02-15T12:48:44.089Z,4.90
2019-02-15T12:49:49.308Z,4.90
2019-02-15T12:50:54.573Z,5.00
2019-02-15T12:51:59.601Z,5.00
2019-02-15T12:53:04.798Z,5.00
2019-02-15T12:54:10.167Z,5.00
2019-02-15T12:55:15.208Z,4.90
2019-02-15T12:56:20.315Z,4.90
2019-02-15T12:57:25.608Z,4.90
2019-02-15T12:58:31.356Z,4.90
2019-02-15T12:59:36.674Z,4.90
2019-02-15T13:00:41.708Z,4.90
2019-02-15T13:01:46.805Z,4.90
2019-02-15T13:02:51.888Z,4.90
2019-02-15T13:03:56.877Z,4.90
2019-02-15T13:05:02.003Z,4.90
2019-02-15T13:06:07.457Z,4.80
2019-02-15T13:07:12.557Z,4.80
2019-02-15T13:08:17.930Z,4.90
2019-02-15T13:09:22.879Z,4.80
2019-02-15T13:10:28.414Z,4.80
2019-02-15T13:11:33.277Z,4.80
2019-02-15T13:12:38.117Z,4.70
2019-02-15T13:13:43.097Z,4.70
2019-02-15T13:14:48.156Z,4.70
2019-02-15T13:15:53.044Z,4.60
2019-02-15T13:16:57.903Z,4.60
2019-02-15T13:18:02.780Z,4.60
2019-02-15T13:19:07.776Z,4.70
2019-02-15T13:20:12.792Z,4.70
2019-02-15T13:21:17.689Z,4.60
2019-02-15T13:22:22.624Z,4.60
2019-02-15T13:23:27.455Z,4.60
2019-02-15T13:24:32.218Z,4.70
2019-02-15T13:25:37.260Z,4.60
2019-02-15T13:26:42.275Z,4.60
2019-02-15T13:27:47.078Z,4.50
2019-02-15T13:28:52.050Z,4.50
2019-02-15T13:29:56.891Z,4.60
2019-02-15T13:31:01.670Z,4.70
2019-02-15T13:32:06.695Z,4.70
2019-02-15T13:33:11.495Z,4.70
2019-02-15T13:34:16.450Z,4.70
2019-02-15T13:35:21.434Z,4.70
2019-02-15T13:36:26.269Z,4.80
2019-02-15T13:37:31.170Z,4.80
2019-02-15T13:38:36.216Z,4.80
2019-02-15T13:39:41.134Z,4.80
2019-02-15T13:40:45.953Z,4.80
2019-02-15T13:41:50.733Z,4.80
2019-02-15T13:42:55.554Z,4.80
2019-02-15T13:44:01.973Z,4.70
2019-02-15T13:45:07.969Z,4.70
2019-02-15T13:46:12.969Z,4.70
2019-02-15T13:47:17.809Z,4.70
2019-02-15T13:48:22.589Z,4.80
2019-02-15T13:49:27.399Z,4.80
2019-02-15T13:50:32.248Z,4.80
2019-02-15T13:51:37.186Z,4.80
2019-02-15T13:52:42.248Z,4.70
2019-02-15T13:53:47.139Z,4.60
2019-02-15T13:54:51.976Z,4.50
2019-02-15T13:55:56.932Z,4.50
2019-02-15T13:57:01.947Z,4.40
2019-02-15T13:58:06.888Z,4.50
2019-02-15T13:59:11.926Z,4.40
2019-02-15T14:00:17.161Z,4.40
2019-02-15T14:01:22.048Z,4.40
2019-02-15T14:02:26.938Z,4.40
2019-02-15T14:03:33.792Z,4.40
2019-02-15T14:04:39.281Z,4.40
2019-02-15T14:05:45.080Z,4.40
2019-02-15T14:06:59.188Z,4.40
2019-02-15T14:08:04.168Z,4.40
2019-02-15T14:09:09.250Z,4.50
2019-02-15T14:10:14.169Z,4.50
2019-02-15T14:11:19.070Z,4.50
2019-02-15T14:12:23.937Z,4.60
2019-02-15T14:13:28.728Z,4.60
2019-02-15T14:14:33.862Z,4.60
2019-02-15T14:15:38.848Z,4.60
2019-02-15T14:16:43.730Z,4.60
2019-02-15T14:17:49.000Z,4.60
2019-02-15T14:18:54.038Z,4.60
2019-02-15T14:20:00.349Z,4.60
2019-02-15T14:21:05.492Z,4.60
2019-02-15T14:22:10.324Z,4.60
2019-02-15T14:23:15.365Z,4.60
2019-02-15T14:24:22.596Z,4.60
2019-02-15T14:25:27.526Z,4.60
2019-02-15T14:26:32.455Z,4.60
2019-02-15T14:27:37.247Z,4.60
2019-02-15T14:28:42.096Z,4.50
2019-02-15T14:29:46.876Z,4.50
2019-02-15T14:30:52.288Z,4.40
2019-02-15T14:31:57.260Z,4.40
2019-02-15T14:33:02.679Z,4.40
2019-02-15T14:34:08.187Z,4.40
2019-02-15T14:35:14.008Z,4.40
2019-02-15T14:36:19.173Z,4.40
2019-02-15T14:37:24.033Z,4.40
2019-02-15T14:38:28.860Z,4.50
2019-02-15T14:39:33.773Z,4.40
2019-02-15T14:40:38.541Z,4.50
2019-02-15T14:41:43.383Z,4.50
2019-02-15T14:42:49.304Z,4.50
2019-02-15T14:43:54.664Z,4.50
2019-02-15T14:44:59.620Z,4.50
2019-02-15T14:46:04.563Z,4.40
2019-02-15T14:47:09.568Z,4.40
2019-02-15T14:48:14.593Z,4.40